Time;durP1;ratioP1;P1;durP2;ratioP2;P2;SDS_P1;SDS_P2;PMS_P1;PMS_P2;Temp;Humidity;BMP_temperature;BMP_pressure;BME280_temperature;BME280_humidity;BME280_pressure;Samples;Min_cycle;Max_cycle;Signal;HPM_P1;HPM_P2
2022/02/22 00:02:14;;;;;;;45.28;29.08;;;;;;;8.18;77.32;99005.81;5047924;28;20424;-22
2022/02/22 00:04:43;;;;;;;51.70;36.38;;;;;;;8.76;75.51;99005.03;5048014;28;20055;-22
2022/02/22 00:07:09;;;;;;;43.50;28.23;;;;;;;8.23;77.11;98997.94;5030696;28;20120;-22
2022/02/22 00:09:34;;;;;;;37.80;25.17;;;;;;;8.13;78.13;98993.22;5013725;28;20033;-22
2022/02/22 00:12:00;;;;;;;35.97;23.67;;;;;;;8.22;77.33;98988.38;5029904;28;20681;-22
2022/02/22 00:14:25;;;;;;;52.13;34.47;;;;;;;8.32;77.21;98972.69;5029820;28;20056;-22
2022/02/22 00:16:55;;;;;;;38.33;24.17;;;;;;;8.35;77.53;98990.78;5047313;28;20032;-23
2022/02/22 00:19:22;;;;;;;39.95;25.35;;;;;;;8.87;75.22;98981.31;5047917;28;20029;-22
2022/02/22 00:21:48;;;;;;;34.78;23.98;;;;;;;9.21;73.97;98985.75;5047873;28;20056;-22
2022/02/22 00:24:13;;;;;;;37.05;23.92;;;;;;;8.60;75.67;98985.28;5047582;28;20452;-22
2022/02/22 00:26:39;;;;;;;36.28;23.00;;;;;;;8.51;76.47;98980.56;5047523;28;20405;-23
2022/02/22 00:29:04;;;;;;;36.15;24.42;;;;;;;8.85;74.96;98961.09;5047174;28;20028;-21
2022/02/22 00:31:30;;;;;;;44.33;28.27;;;;;;;9.27;73.11;98964.56;5029608;28;20043;-21
2022/02/22 00:33:55;;;;;;;43.22;26.83;;;;;;;8.99;74.02;98958.16;5029392;28;20634;-22
2022/02/22 00:36:21;;;;;;;42.13;27.02;;;;;;;8.88;73.82;98962.47;5029350;28;20036;-22
2022/02/22 00:38:49;;;;;;;42.15;27.40;;;;;;;8.67;75.11;98958.59;5047261;28;20025;-22
2022/02/22 00:41:16;;;;;;;41.65;27.92;;;;;;;8.79;74.86;98967.34;5047498;28;20112;-23
2022/02/22 00:43:41;;;;;;;41.97;25.70;;;;;;;9.11;73.30;98972.22;5029172;28;20485;-22
2022/02/22 00:46:07;;;;;;;40.45;25.38;;;;;;;8.82;73.96;98950.13;5047742;28;20094;-22
2022/02/22 00:48:32;;;;;;;40.78;26.48;;;;;;;8.47;74.81;98950.19;5029259;28;20021;-21
2022/02/22 00:50:57;;;;;;;37.53;24.67;;;;;;;8.46;74.58;98957.34;5029310;28;20408;-22
2022/02/22 00:53:23;;;;;;;39.03;24.52;;;;;;;8.68;74.36;98941.59;5047271;28;20025;-22
2022/02/22 00:55:49;;;;;;;36.63;24.00;;;;;;;8.79;73.30;98927.47;5046911;28;20090;-22
2022/02/22 00:58:14;;;;;;;38.38;24.40;;;;;;;8.77;74.31;98948.16;5046766;28;20528;-22
2022/02/22 01:00:40;;;;;;;40.47;25.70;;;;;;;8.73;73.82;98944.38;5047307;28;20095;-22
2022/02/22 01:03:05;;;;;;;36.15;24.13;;;;;;;8.26;74.74;98939.06;5029202;28;20025;-22
2022/02/22 01:05:30;;;;;;;41.15;24.45;;;;;;;8.35;75.07;98931.56;5046919;28;20028;-22
2022/02/22 01:07:56;;;;;;;40.03;25.90;;;;;;;8.68;74.36;98946.91;5012540;28;20715;-22
2022/02/22 01:10:22;;;;;;;39.30;26.23;;;;;;;8.31;74.40;98949.78;5012519;28;20044;-22
2022/02/22 01:12:48;;;;;;;38.33;25.77;;;;;;;8.27;74.71;98942.53;5011951;28;20045;-22
2022/02/22 01:15:13;;;;;;;40.92;25.25;;;;;;;7.74;77.80;98960.91;5012640;28;20032;-22
2022/02/22 01:17:39;;;;;;;38.95;25.92;;;;;;;7.81;77.59;98958.19;5046993;28;20036;-24
2022/02/22 01:20:07;;;;;;;37.08;25.45;;;;;;;7.85;75.53;98964.66;5046741;28;20082;-22
2022/02/22 01:22:33;;;;;;;41.92;26.05;;;;;;;7.47;77.46;98957.84;5029042;28;20037;-23
2022/02/22 01:24:59;;;;;;;36.88;23.95;;;;;;;7.34;78.31;98952.75;5028898;28;20043;-21
2022/02/22 01:27:24;;;;;;;40.42;25.73;;;;;;;7.47;77.88;98951.75;5046459;28;20029;-22
2022/02/22 01:29:50;;;;;;;44.28;28.45;;;;;;;7.67;77.60;98939.00;5045586;28;20040;-22
2022/02/22 01:32:15;;;;;;;42.30;27.40;;;;;;;7.86;77.23;98934.41;5046429;28;20037;-22
2022/02/22 01:34:41;;;;;;;43.13;27.27;;;;;;;7.69;76.50;98928.16;5028441;28;20025;-28
2022/02/22 01:37:06;;;;;;;40.03;27.83;;;;;;;7.51;77.63;98950.25;5028738;28;20025;-21
2022/02/22 01:39:32;;;;;;;44.10;28.00;;;;;;;7.84;76.18;98947.09;5012172;28;20020;-23
2022/02/22 01:41:58;;;;;;;42.72;27.95;;;;;;;8.14;74.84;98935.59;5046114;28;20059;-23
2022/02/22 01:44:23;;;;;;;39.95;27.50;;;;;;;8.29;74.17;98943.91;5046414;28;20090;-22
2022/02/22 01:46:59;;;;;;;39.03;26.15;;;;;;;7.97;74.22;98924.88;5046234;28;20115;-28
2022/02/22 01:49:24;;;;;;;39.08;26.17;;;;;;;7.70;75.83;98919.16;5046477;28;20022;-22
2022/02/22 01:51:50;;;;;;;42.33;26.30;;;;;;;7.77;76.02;98930.50;5028332;28;20025;-22
2022/02/22 01:54:16;;;;;;;39.40;26.88;;;;;;;7.59;76.52;98923.41;5028643;28;20029;-22
2022/02/22 01:56:41;;;;;;;41.60;27.42;;;;;;;7.20;77.19;98901.72;5027793;28;20021;-23
2022/02/22 01:59:07;;;;;;;44.10;27.17;;;;;;;7.41;76.96;98906.50;5012027;28;20029;-23
2022/02/22 02:01:33;;;;;;;42.40;27.48;;;;;;;8.08;74.32;98921.41;5028421;28;20029;-22
2022/02/22 02:03:59;;;;;;;48.22;28.77;;;;;;;7.32;76.96;98915.03;5046213;28;20061;-21
2022/02/22 02:06:24;;;;;;;44.17;29.48;;;;;;;7.67;75.89;98914.31;5046329;28;20024;-22
2022/02/22 02:08:50;;;;;;;47.42;28.33;;;;;;;7.89;74.69;98907.41;5045793;28;20021;-22
2022/02/22 02:11:15;;;;;;;38.33;27.20;;;;;;;7.01;77.37;98885.06;5011443;28;20556;-22
2022/02/22 02:13:41;;;;;;;37.00;26.40;;;;;;;6.59;79.31;98887.63;5046278;28;20032;-22
2022/02/22 02:16:07;;;;;;;42.75;25.50;;;;;;;6.43;79.93;98908.34;5028329;28;20025;-22
2022/02/22 02:18:33;;;;;;;38.50;26.02;;;;;;;6.52;79.56;98913.34;5045922;28;20345;-22
2022/02/22 02:20:59;;;;;;;42.72;28.02;;;;;;;6.94;77.25;98905.53;5046269;28;20580;-22
2022/02/22 02:23:24;;;;;;;42.90;27.27;;;;;;;7.37;74.89;98883.31;5028148;28;20413;-22
2022/02/22 02:25:50;;;;;;;40.80;25.88;;;;;;;7.61;74.07;98906.22;5045946;28;20033;-22
2022/02/22 02:28:15;;;;;;;40.25;26.58;;;;;;;7.44;73.14;98906.06;5046175;28;20044;-22
2022/02/22 02:30:42;;;;;;;38.70;26.75;;;;;;;7.37;73.01;98921.25;5045552;28;20044;-23
2022/02/22 02:33:07;;;;;;;42.65;27.63;;;;;;;7.38;72.82;98916.78;5028097;28;20025;-21
2022/02/22 02:35:33;;;;;;;40.55;25.63;;;;;;;7.79;71.37;98917.78;5045937;28;20025;-22
2022/02/22 02:37:58;;;;;;;40.15;27.50;;;;;;;7.15;73.47;98917.50;5027718;28;20040;-23
2022/02/22 02:40:24;;;;;;;43.05;28.15;;;;;;;7.29;72.30;98929.53;5047402;28;20029;-23
2022/02/22 02:42:49;;;;;;;37.80;25.67;;;;;;;6.97;72.75;98921.00;5049555;28;20037;-22
2022/02/22 02:45:15;;;;;;;43.10;27.83;;;;;;;7.06;73.07;98924.94;5031883;28;20396;-22
2022/02/22 02:47:40;;;;;;;44.22;27.13;;;;;;;6.96;72.81;98908.78;5049604;28;20029;-22
2022/02/22 02:50:07;;;;;;;41.65;27.33;;;;;;;7.03;74.26;98933.38;5031731;28;20377;-22
2022/02/22 02:52:32;;;;;;;40.63;26.77;;;;;;;7.42;71.18;98931.22;5031091;28;20393;-22
2022/02/22 02:54:58;;;;;;;41.08;27.70;;;;;;;7.41;71.71;98937.53;5049390;28;20025;-22
2022/02/22 02:57:23;;;;;;;40.58;27.17;;;;;;;6.80;75.11;98947.28;5049190;28;20025;-22
2022/02/22 02:59:49;;;;;;;42.88;28.55;;;;;;;7.11;74.13;98938.38;5031675;28;20029;-22
2022/02/22 03:02:14;;;;;;;45.03;28.90;;;;;;;6.69;76.01;98929.50;5049130;28;20041;-22
2022/02/22 03:04:40;;;;;;;44.80;29.08;;;;;;;7.26;75.15;98935.31;5049246;28;20032;-24
2022/02/22 03:07:05;;;;;;;42.63;29.45;;;;;;;7.31;73.59;98938.06;5049378;28;20024;-23
2022/02/22 03:09:31;;;;;;;47.90;30.35;;;;;;;7.44;72.84;98934.44;5048905;28;20086;-22
2022/02/22 03:11:56;;;;;;;54.38;32.85;;;;;;;6.70;75.02;98945.16;5030962;28;20055;-22
2022/02/22 03:14:22;;;;;;;47.28;30.55;;;;;;;6.70;74.46;98941.69;5015011;28;20032;-22
2022/02/22 03:16:47;;;;;;;48.83;31.83;;;;;;;6.99;74.26;98935.66;5030954;28;20029;-22
2022/02/22 03:19:14;;;;;;;52.08;33.42;;;;;;;7.31;73.00;98924.00;5031441;28;20037;-23
2022/02/22 03:21:39;;;;;;;47.45;30.95;;;;;;;7.35;72.55;98927.84;5049072;28;20040;-22
2022/02/22 03:24:05;;;;;;;53.03;33.88;;;;;;;7.21;72.45;98906.81;5030733;28;20029;-23
2022/02/22 03:26:30;;;;;;;142.00;66.40;;;;;;;7.04;73.92;98916.41;5030790;28;20039;-23
2022/02/22 03:28:58;;;;;;;99.90;52.05;;;;;;;6.96;74.47;98924.69;5049474;28;20209;-22
2022/02/22 03:31:24;;;;;;;60.90;37.58;;;;;;;6.94;74.73;98918.78;5049035;28;20036;-22
2022/02/22 03:33:52;;;;;;;63.33;37.95;;;;;;;6.60;76.15;98932.44;5048945;28;20037;-22
2022/02/22 03:36:18;;;;;;;55.70;36.45;;;;;;;6.23;76.43;98913.03;5031147;28;20021;-22
2022/02/22 03:38:44;;;;;;;51.95;33.47;;;;;;;6.38;76.10;98939.19;5030693;28;20024;-22
2022/02/22 03:41:09;;;;;;;48.97;32.47;;;;;;;6.43;75.73;98932.19;5048990;28;20091;-21
2022/02/22 03:43:35;;;;;;;55.63;32.45;;;;;;;6.73;74.16;98918.22;5031011;28;20086;-23
2022/02/22 03:46:01;;;;;;;55.03;34.38;;;;;;;7.05;73.63;98907.44;5030806;28;20082;-23
2022/02/22 03:48:26;;;;;;;56.25;35.97;;;;;;;7.18;73.65;98912.56;5049054;28;20025;-22
2022/02/22 03:50:52;;;;;;;49.80;33.00;;;;;;;6.63;74.31;98928.53;5030066;28;20036;-22
2022/02/22 03:53:18;;;;;;;45.83;31.95;;;;;;;5.82;76.66;98925.81;5029679;28;20040;-23
2022/02/22 03:55:44;;;;;;;45.33;30.98;;;;;;;5.29;77.76;98910.31;5048322;28;20024;-22
2022/02/22 03:58:09;;;;;;;48.13;30.67;;;;;;;4.95;79.84;98924.72;5048310;28;20638;-22
2022/02/22 04:00:35;;;;;;;47.85;31.48;;;;;;;4.68;80.42;98930.09;5048064;28;20076;-22
2022/02/22 04:03:03;;;;;;;46.55;28.83;;;;;;;4.37;81.54;98910.50;5048191;28;20060;-22
2022/02/22 04:05:29;;;;;;;49.10;30.65;;;;;;;5.25;77.59;98909.13;5048452;28;20033;-23
2022/02/22 04:07:54;;;;;;;51.38;30.33;;;;;;;5.61;76.04;98928.81;5030320;28;20104;-22
2022/02/22 04:10:20;;;;;;;54.20;32.03;;;;;;;5.47;77.36;98938.66;5030557;28;20535;-22
2022/02/22 04:12:45;;;;;;;52.17;32.15;;;;;;;5.37;78.03;98923.28;5047521;28;20080;-22
2022/02/22 04:15:11;;;;;;;56.78;33.58;;;;;;;5.77;75.26;98927.47;5030314;28;20135;-22
2022/02/22 04:17:36;;;;;;;77.60;48.20;;;;;;;5.99;73.68;98928.75;5048084;28;20056;-23
2022/02/22 04:20:03;;;;;;;60.53;35.97;;;;;;;5.96;73.08;98937.09;5029883;28;20527;-22
2022/02/22 04:22:28;;;;;;;53.00;33.03;;;;;;;5.45;74.73;98945.97;5030335;28;20040;-22
2022/02/22 04:24:54;;;;;;;51.72;32.78;;;;;;;5.51;75.08;98939.84;5047705;28;20021;-23
2022/02/22 04:27:19;;;;;;;52.88;33.95;;;;;;;5.53;75.87;98931.72;5047869;28;20463;-22
2022/02/22 04:29:45;;;;;;;57.70;35.20;;;;;;;5.62;76.68;98952.41;5029761;28;20124;-23
2022/02/22 04:32:10;;;;;;;97.70;40.40;;;;;;;5.67;76.31;98943.81;5046486;28;20029;-22
2022/02/22 04:34:36;;;;;;;96.82;41.63;;;;;;;5.56;77.70;98937.38;5029892;28;20056;-22
2022/02/22 04:37:02;;;;;;;106.78;39.15;;;;;;;5.11;78.92;98955.94;5029434;28;20121;-22
2022/02/22 04:39:27;;;;;;;77.07;33.42;;;;;;;5.15;78.22;98957.16;5013274;28;20017;-23
2022/02/22 04:41:53;;;;;;;69.10;31.70;;;;;;;5.47;78.08;98967.75;5029498;28;20413;-23
2022/02/22 04:44:18;;;;;;;58.47;31.13;;;;;;;5.73;77.12;98942.16;5029538;28;20033;-22
2022/02/22 04:46:44;;;;;;;57.45;32.30;;;;;;;5.36;79.29;98968.44;5046962;28;20029;-22
2022/02/22 04:49:10;;;;;;;66.55;33.95;;;;;;;5.26;80.11;98965.44;5029273;28;20501;-23
2022/02/22 04:51:36;;;;;;;60.28;32.72;;;;;;;5.24;79.78;98963.00;4996390;28;20214;-22
2022/02/22 04:54:02;;;;;;;55.05;32.65;;;;;;;5.45;77.73;98940.69;5047165;28;20112;-22
2022/02/22 04:56:27;;;;;;;57.60;34.00;;;;;;;5.49;77.37;98965.69;5029339;28;20040;-22
2022/02/22 04:58:54;;;;;;;59.55;32.88;;;;;;;5.19;78.61;98963.63;5029071;28;20050;-23
2022/02/22 05:01:20;;;;;;;52.22;32.78;;;;;;;5.40;76.38;98959.03;5047329;28;20112;-23
2022/02/22 05:03:45;;;;;;;57.97;33.33;;;;;;;5.45;77.00;98967.13;5046680;28;20029;-22
2022/02/22 05:06:11;;;;;;;57.60;33.42;;;;;;;5.20;77.99;98959.94;5046725;28;20036;-22
2022/02/22 05:08:36;;;;;;;57.20;34.20;;;;;;;4.73;79.70;98959.31;5046426;28;20408;-22
2022/02/22 05:11:02;;;;;;;50.30;33.72;;;;;;;5.12;78.94;98954.09;5028841;28;20130;-23
2022/02/22 05:13:27;;;;;;;54.53;31.13;;;;;;;5.02;77.14;98973.03;5046717;28;20036;-22
2022/02/22 05:15:53;;;;;;;57.45;31.95;;;;;;;5.47;75.78;98982.81;5046541;28;20035;-22
2022/02/22 05:18:18;;;;;;;63.88;33.58;;;;;;;5.03;76.76;98964.91;5046624;28;20036;-22
2022/02/22 05:20:54;;;;;;;61.22;34.42;;;;;;;4.54;78.21;98981.31;5028416;28;20033;-22
2022/02/22 05:23:23;;;;;;;71.15;32.40;;;;;;;3.92;79.46;98955.16;5046897;28;20037;-22
2022/02/22 05:25:49;;;;;;;47.00;29.30;;;;;;;4.01;79.42;98977.72;5028814;28;20025;-22
2022/02/22 05:28:14;;;;;;;81.40;33.15;;;;;;;4.03;80.57;98946.66;5046646;28;20082;-22
2022/02/22 05:30:40;;;;;;;58.70;33.83;;;;;;;4.45;78.65;98956.94;5011637;28;20029;-23
2022/02/22 05:33:05;;;;;;;65.97;32.03;;;;;;;4.37;79.87;98971.19;5046286;28;20090;-22
2022/02/22 05:35:31;;;;;;;70.80;33.05;;;;;;;4.49;80.38;98983.75;5028597;28;20021;-22
2022/02/22 05:37:56;;;;;;;70.00;34.13;;;;;;;4.87;78.40;98977.78;5046470;28;20119;-22
2022/02/22 05:40:22;;;;;;;77.30;34.97;;;;;;;4.70;79.01;98980.06;5046475;28;20033;-23
2022/02/22 05:42:47;;;;;;;72.30;37.17;;;;;;;4.63;78.43;98980.06;5046423;28;20556;-22
2022/02/22 05:45:13;;;;;;;97.63;39.63;;;;;;;5.20;77.27;98981.09;5028396;28;20036;-22
2022/02/22 05:47:38;;;;;;;81.93;40.88;;;;;;;4.94;77.32;98981.19;5046291;28;20043;-22
2022/02/22 05:50:04;;;;;;;82.55;41.92;;;;;;;4.52;79.50;98996.56;5028258;28;20458;-22
2022/02/22 05:52:30;;;;;;;83.25;45.70;;;;;;;5.05;77.41;99009.63;5046776;28;20041;-22
2022/02/22 05:54:55;;;;;;;74.10;45.72;;;;;;;5.41;75.92;98998.50;5046361;28;20549;-22
2022/02/22 05:57:24;;;;;;;81.65;43.75;;;;;;;5.54;76.67;98997.63;5046193;28;20036;-22
2022/02/22 05:59:49;;;;;;;72.97;35.60;;;;;;;5.22;78.36;98994.91;5028501;28;20029;-22
2022/02/22 06:02:15;;;;;;;56.45;35.58;;;;;;;4.56;81.19;98995.13;5046284;28;20036;-23
2022/02/22 06:04:40;;;;;;;67.15;36.83;;;;;;;4.27;83.75;98994.56;5027980;28;20040;-22
2022/02/22 06:07:06;;;;;;;119.72;55.25;;;;;;;4.92;81.65;98991.16;5028487;28;20558;-23
2022/02/22 06:09:31;;;;;;;80.20;41.70;;;;;;;5.24;79.68;99000.00;5046214;28;20036;-21
2022/02/22 06:11:57;;;;;;;85.22;39.63;;;;;;;5.68;77.79;98993.06;5046023;28;20060;-22
2022/02/22 06:14:22;;;;;;;83.35;46.38;;;;;;;5.91;76.65;99008.38;5046144;28;20087;-22
2022/02/22 06:16:48;;;;;;;99.13;51.60;;;;;;;6.00;75.74;99004.44;5049703;28;20103;-22
2022/02/22 06:19:14;;;;;;;124.93;60.58;;;;;;;5.10;79.18;99001.88;5049873;28;20408;-22
2022/02/22 06:21:39;;;;;;;83.78;44.58;;;;;;;5.15;81.27;99025.84;5050110;28;20039;-22
2022/02/22 06:24:05;;;;;;;75.70;40.88;;;;;;;5.51;78.84;99016.53;5015694;28;20024;-23
2022/02/22 06:26:31;;;;;;;72.95;42.85;;;;;;;5.91;77.40;99005.72;5031747;28;20036;-22
2022/02/22 06:28:56;;;;;;;75.43;44.58;;;;;;;5.92;77.13;99017.09;5049819;28;20032;-22
2022/02/22 06:31:22;;;;;;;62.15;39.58;;;;;;;5.50;79.08;99022.06;5031870;28;20037;-22
2022/02/22 06:33:47;;;;;;;52.13;37.17;;;;;;;5.46;79.94;99003.16;5049826;28;20480;-22
2022/02/22 06:36:15;;;;;;;48.88;34.75;;;;;;;5.76;79.27;99015.78;5049730;28;20033;-22
2022/02/22 06:38:41;;;;;;;;;;;;;;;6.02;77.81;99015.63;5050115;28;20020;-23
2022/02/22 06:41:06;;;;;;;53.40;32.50;;;;;;;5.85;77.74;99001.28;5049925;28;19909;-22
2022/02/22 06:43:32;;;;;;;46.33;31.42;;;;;;;6.09;77.87;99020.91;5031911;28;20037;-22
2022/02/22 06:45:57;;;;;;;46.85;32.17;;;;;;;6.34;78.13;99023.53;5032207;28;20059;-22
2022/02/22 06:48:22;;;;;;;45.67;32.75;;;;;;;6.27;78.03;99030.72;5031342;28;20033;-22
2022/02/22 06:50:48;;;;;;;49.03;33.92;;;;;;;6.34;79.79;99028.84;5031465;28;20029;-23
2022/02/22 06:53:13;;;;;;;53.42;34.88;;;;;;;6.47;79.24;99022.59;5049388;28;20033;-22
2022/02/22 06:55:39;;;;;;;42.65;33.25;;;;;;;6.70;78.08;99031.78;5031556;28;20035;-22
2022/02/22 06:58:09;;;;;;;45.03;33.72;;;;;;;6.60;79.79;99049.00;5015208;28;20866;-22
2022/02/22 07:00:38;;;;;;;55.35;36.80;;;;;;;6.28;81.42;99035.00;5031157;28;20501;-22
2022/02/22 07:03:04;;;;;;;54.25;37.10;;;;;;;6.52;80.55;99045.78;5031151;28;20518;-22
2022/02/22 07:05:30;;;;;;;50.80;35.72;;;;;;;6.59;80.84;99035.97;5031265;28;20075;-22
2022/02/22 07:07:57;;;;;;;58.33;40.47;;;;;;;7.16;79.63;99046.38;5014919;28;20082;-22
2022/02/22 07:10:23;;;;;;;55.90;39.67;;;;;;;7.17;80.00;99038.22;5031016;28;20024;-22
2022/02/22 07:12:48;;;;;;;51.38;39.65;;;;;;;7.50;79.22;99044.13;5048645;28;20114;-22
2022/02/22 07:15:14;;;;;;;53.45;35.53;;;;;;;7.97;76.98;99050.44;5048713;28;20539;-22
2022/02/22 07:18:00;;;;;;;51.42;34.45;;;;;;;7.78;77.58;99051.53;5048824;28;20040;-22
2022/02/22 07:20:26;;;;;;;54.53;37.90;;;;;;;7.74;79.59;99058.31;5031004;28;20069;-22
2022/02/22 07:22:52;;;;;;;49.08;34.40;;;;;;;8.14;77.50;99057.75;5030841;28;20489;-23
2022/02/22 07:25:18;;;;;;;50.45;35.70;;;;;;;8.39;77.85;99049.59;5030628;28;20053;-22
2022/02/22 07:27:44;;;;;;;122.40;68.10;;;;;;;8.53;77.73;99050.22;5047482;28;20064;-22
2022/02/22 07:30:11;;;;;;;71.45;45.70;;;;;;;8.69;76.55;99060.16;5031069;28;20583;-22
2022/02/22 07:32:38;;;;;;;61.38;41.97;;;;;;;8.88;76.68;99057.38;5031111;28;20029;-22
2022/02/22 07:35:05;;;;;;;54.83;37.92;;;;;;;8.56;78.14;99061.22;5048579;28;20099;-22
2022/02/22 07:37:31;;;;;;;61.03;42.03;;;;;;;8.38;79.54;99055.97;5048616;28;20065;-22
2022/02/22 07:39:57;;;;;;;56.50;37.67;;;;;;;8.73;77.70;99055.22;5048775;28;20282;-22
2022/02/22 07:42:22;;;;;;;56.58;38.75;;;;;;;8.66;78.04;99055.28;5030211;28;20789;-22
2022/02/22 07:44:47;;;;;;;60.00;39.45;;;;;;;8.92;76.92;99063.84;5048746;28;20032;-22
2022/02/22 07:47:13;;;;;;;58.45;38.95;;;;;;;8.91;77.22;99063.06;5048651;28;20021;-22
2022/02/22 07:49:38;;;;;;;60.42;39.40;;;;;;;9.30;75.87;99054.56;5048291;28;20040;-22
2022/02/22 07:52:04;;;;;;;51.83;36.90;;;;;;;9.36;75.98;99058.94;5048584;28;20519;-23
2022/02/22 07:54:30;;;;;;;52.75;35.95;;;;;;;9.27;76.50;99057.69;5048226;28;20029;-22
2022/02/22 07:56:55;;;;;;;48.42;33.63;;;;;;;9.42;75.69;99050.00;5030036;28;20025;-22
2022/02/22 07:59:20;;;;;;;49.50;34.13;;;;;;;9.80;74.56;99048.59;5030837;28;20040;-22
2022/02/22 08:01:46;;;;;;;52.42;34.63;;;;;;;9.81;74.76;99055.53;5048405;28;20040;-22
2022/02/22 08:04:11;;;;;;;52.47;35.35;;;;;;;10.08;73.71;99054.94;5048307;28;20094;-22
2022/02/22 08:06:37;;;;;;;48.95;34.90;;;;;;;10.15;73.97;99052.91;5048040;28;20025;-23
2022/02/22 08:09:02;;;;;;;49.53;34.85;;;;;;;10.42;72.76;99045.94;5030032;28;20171;-23
2022/02/22 08:11:31;;;;;;;226.48;106.93;;;;;;;10.90;71.52;99057.03;5026392;28;20061;-22
2022/02/22 08:13:59;;;;;;;49.58;34.70;;;;;;;11.00;70.81;99037.72;5043069;28;20048;-22
2022/02/22 08:16:28;;;;;;;48.45;32.00;;;;;;;11.10;70.55;99051.19;5027855;28;20025;-22
2022/02/22 08:18:54;;;;;;;48.97;33.88;;;;;;;11.38;70.93;99041.38;5009859;28;20055;-22
2022/02/22 08:21:20;;;;;;;48.03;32.55;;;;;;;11.85;69.33;99056.88;5026713;28;20029;-22
2022/02/22 08:23:46;;;;;;;45.35;33.00;;;;;;;11.89;68.30;99050.00;5027811;28;20037;-22
2022/02/22 08:26:11;;;;;;;42.22;29.92;;;;;;;11.88;68.04;99045.66;5009863;28;20485;-22
2022/02/22 08:28:37;;;;;;;45.80;29.45;;;;;;;11.78;69.43;99034.88;5027501;28;20037;-22
2022/02/22 08:31:02;;;;;;;38.85;26.27;;;;;;;11.91;69.11;99044.38;5027797;28;20037;-22
2022/02/22 08:33:28;;;;;;;44.03;29.58;;;;;;;11.76;70.17;99045.00;5027797;28;20036;-22
2022/02/22 08:35:53;;;;;;;42.55;28.88;;;;;;;12.16;69.55;99035.81;5027361;28;20037;-22
2022/02/22 08:38:19;;;;;;;38.75;27.27;;;;;;;12.49;68.34;99010.66;5027207;28;20044;-22
2022/02/22 08:40:45;;;;;;;40.95;26.27;;;;;;;12.82;66.77;99032.78;5025782;28;20057;-22
2022/02/22 08:43:13;;;;;;;37.45;25.70;;;;;;;12.99;65.68;99032.59;5027765;28;20460;-22
2022/02/22 08:45:39;;;;;;;39.05;27.45;;;;;;;13.15;65.78;99026.25;5027226;28;20503;-23
2022/02/22 08:48:04;;;;;;;39.17;26.40;;;;;;;13.26;65.27;99022.56;5042728;28;20033;-22
2022/02/22 08:50:30;;;;;;;46.05;32.83;;;;;;;13.16;65.63;99029.75;5027245;28;20103;-23
2022/02/22 08:52:55;;;;;;;37.80;27.20;;;;;;;13.08;65.93;99017.69;5027122;28;20115;-22
2022/02/22 08:55:21;;;;;;;39.92;27.15;;;;;;;13.42;64.89;99018.09;5029621;28;20041;-22
2022/02/22 08:57:46;;;;;;;36.53;25.98;;;;;;;13.78;63.18;99004.00;5046882;28;20044;-22
2022/02/22 09:00:12;;;;;;;38.35;24.13;;;;;;;13.53;62.74;98997.50;5029674;28;20041;-22
2022/02/22 09:02:38;;;;;;;31.25;23.02;;;;;;;13.71;62.76;98995.38;5035100;28;20031;-22
2022/02/22 09:05:04;;;;;;;32.15;22.90;;;;;;;14.02;61.83;99001.59;5044840;28;20402;-22
2022/02/22 09:07:29;;;;;;;38.45;27.42;;;;;;;13.97;62.00;98991.66;5044873;28;20524;-23
2022/02/22 09:09:55;;;;;;;33.10;24.23;;;;;;;13.73;62.44;98985.22;5046165;28;20044;-22
2022/02/22 09:12:20;;;;;;;30.73;22.58;;;;;;;13.81;62.90;98996.22;5058559;28;20110;-22
2022/02/22 09:14:46;;;;;;;32.97;21.13;;;;;;;13.60;63.40;98995.38;5066532;28;20032;-22
2022/02/22 09:17:13;;;;;;;28.40;21.40;;;;;;;13.51;63.18;98986.25;5032551;28;20098;-22
2022/02/22 09:19:38;;;;;;;30.85;22.08;;;;;;;13.78;63.19;98985.22;5048739;28;20036;-22
2022/02/22 09:22:04;;;;;;;74.07;67.03;;;;;;;14.10;61.82;98997.56;5032345;28;20043;-22
2022/02/22 09:24:29;;;;;;;289.70;262.20;;;;;;;13.91;62.44;98990.06;5048528;28;20414;-23
2022/02/22 09:26:55;;;;;;;38.65;30.95;;;;;;;14.04;62.90;98986.84;5048578;28;20028;-22
2022/02/22 09:29:20;;;;;;;35.53;25.60;;;;;;;13.72;62.92;98979.06;5048822;28;20043;-22
2022/02/22 09:31:49;;;;;;;33.15;24.05;;;;;;;14.18;62.32;98997.84;5048615;28;20036;-22
2022/02/22 09:34:17;;;;;;;30.98;22.90;;;;;;;14.35;61.17;99007.50;5066395;28;20822;-22
2022/02/22 09:36:42;;;;;;;35.33;24.45;;;;;;;14.57;61.66;99001.88;5031907;28;20029;-22
2022/02/22 09:39:08;;;;;;;30.75;22.85;;;;;;;14.30;62.73;98986.81;5048220;28;20392;-22
2022/02/22 09:41:36;;;;;;;36.53;25.83;;;;;;;14.58;61.72;98992.72;5031881;28;20041;-22
2022/02/22 09:44:02;;;;;;;31.27;22.48;;;;;;;14.07;62.54;98994.34;5066549;28;20488;-22
2022/02/22 09:46:29;;;;;;;36.33;24.40;;;;;;;14.19;62.39;98982.56;5048074;28;20028;-22
2022/02/22 09:48:55;;;;;;;34.08;23.70;;;;;;;14.83;60.38;98986.50;5031099;28;20059;-22
2022/02/22 09:51:20;;;;;;;31.10;22.75;;;;;;;14.66;62.14;99000.22;5065946;28;20029;-22
2022/02/22 09:53:46;;;;;;;33.38;21.60;;;;;;;15.14;59.67;98997.94;5048139;28;20060;-22
2022/02/22 09:56:11;;;;;;;28.33;20.30;;;;;;;14.89;60.17;98995.34;5066389;28;20145;-22
2022/02/22 09:58:36;;;;;;;28.05;20.17;;;;;;;14.53;62.88;98990.03;5031766;28;20035;-22
2022/02/22 10:01:02;;;;;;;28.80;19.88;;;;;;;14.81;61.72;98994.84;5048145;28;20033;-22
2022/02/22 10:03:28;;;;;;;31.05;22.58;;;;;;;14.73;62.04;99000.78;5066021;28;20028;-23
2022/02/22 10:05:58;;;;;;;35.22;22.63;;;;;;;14.78;61.70;99008.78;5048253;28;20032;-22
2022/02/22 10:08:31;;;;;;;35.35;25.08;;;;;;;14.70;62.26;98989.78;5048185;28;20028;-21
2022/02/22 10:11:00;;;;;;;32.92;23.85;;;;;;;14.49;62.45;99010.44;5048163;28;20415;-22
2022/02/22 10:13:26;;;;;;;33.50;22.50;;;;;;;14.47;62.78;99003.47;5066436;28;20071;-22
2022/02/22 10:15:51;;;;;;;36.88;23.77;;;;;;;14.50;62.04;99009.34;5066222;28;20056;-22
2022/02/22 10:18:16;;;;;;;31.88;22.60;;;;;;;14.84;61.17;99014.97;5066392;28;20040;-22
2022/02/22 10:20:42;;;;;;;33.88;20.67;;;;;;;14.83;61.45;99011.47;5065790;28;20040;-22
2022/02/22 10:23:07;;;;;;;32.58;21.80;;;;;;;15.22;59.85;99004.59;5066539;28;20072;-22
2022/02/22 10:25:35;;;;;;;36.92;23.30;;;;;;;15.60;59.65;98996.91;5066033;28;20056;-22
2022/02/22 10:28:00;;;;;;;27.50;21.35;;;;;;;15.64;58.45;99006.81;5048419;28;20036;-22
2022/02/22 10:30:40;;;;;;;31.27;22.17;;;;;;;15.74;58.05;99008.66;5047833;28;20039;-22
2022/02/22 10:33:17;;;;;;;28.92;22.20;;;;;;;15.74;57.91;99024.00;5047844;28;20547;-22
2022/02/22 10:35:46;;;;;;;31.92;23.10;;;;;;;15.31;60.15;99020.97;5065931;28;20028;-22
2022/02/22 10:38:20;;;;;;;28.23;21.63;;;;;;;15.51;60.37;99020.06;5066340;28;20037;-22
2022/02/22 10:40:56;;;;;;;32.60;22.90;;;;;;;15.64;58.67;99004.13;5047897;28;20575;-22
2022/02/22 10:43:35;;;;;;;26.85;20.40;;;;;;;15.41;59.82;99004.81;5065695;28;20060;-22
2022/02/22 10:46:02;;;;;;;26.30;19.80;;;;;;;15.77;58.44;99016.19;5048001;28;20067;-22
2022/02/22 10:48:29;;;;;;;25.13;20.15;;;;;;;15.79;58.55;99005.97;5048323;28;20033;-22
2022/02/22 10:50:55;;;;;;;28.75;21.02;;;;;;;16.14;57.74;99000.59;5065780;28;20028;-22
2022/02/22 10:53:45;;;;;;;27.10;20.00;;;;;;;15.93;57.54;99000.75;5066059;28;20082;-22
2022/02/22 10:56:12;;;;;;;27.42;20.20;;;;;;;15.60;58.31;98992.31;5065155;28;20155;-22
2022/02/22 10:58:43;;;;;;;28.25;20.42;;;;;;;15.45;58.74;98989.75;5047768;28;20078;-22
2022/02/22 11:01:16;;;;;;;29.88;21.35;;;;;;;16.14;57.08;98984.44;5049195;28;20025;-21
2022/02/22 11:03:42;;;;;;;28.65;19.52;;;;;;;16.66;56.67;98981.00;5069275;28;20119;-23
2022/02/22 11:06:09;;;;;;;26.58;19.38;;;;;;;16.80;55.73;98983.81;5051619;28;20025;-22
2022/02/22 11:08:36;;;;;;;27.63;18.50;;;;;;;17.03;54.63;98994.91;5051066;28;20029;-23
2022/02/22 11:11:32;;;;;;;27.08;19.65;;;;;;;16.79;55.19;98979.50;5051351;28;20039;-22
2022/02/22 11:13:59;;;;;;;27.52;19.73;;;;;;;16.59;56.42;98979.72;5037701;28;20029;-22
2022/02/22 11:16:26;;;;;;;27.73;20.25;;;;;;;16.84;56.62;98984.09;5051159;28;20079;-23
2022/02/22 11:18:53;;;;;;;31.08;20.30;;;;;;;16.95;55.63;98980.16;5051048;28;20539;-23